Time;durP1;ratioP1;P1;durP2;ratioP2;P2;SDS_P1;SDS_P2;PMS_P1;PMS_P2;Temp;Humidity;BMP_temperature;BMP_pressure;BME280_temperature;BME280_humidity;BME280_pressure;Samples;Min_cycle;Max_cycle;Signal;HPM_P1;HPM_P2
2022/07/16 00:02:21;;;;;;;1.48;0.85;;;17.10;99.90;;;;;;5070287;28;20097;-70
2022/07/16 00:04:47;;;;;;;2.22;0.80;;;17.00;99.90;;;;;;5070149;28;20135;-69
2022/07/16 00:07:12;;;;;;;2.33;0.98;;;17.00;99.90;;;;;;5071416;28;20113;-69
2022/07/16 00:09:38;;;;;;;1.90;0.90;;;17.00;99.90;;;;;;5071704;28;20037;-69
2022/07/16 00:12:04;;;;;;;1.38;0.93;;;17.00;99.90;;;;;;5067215;28;20135;-69
2022/07/16 00:14:30;;;;;;;3.90;0.98;;;17.00;99.90;;;;;;5064476;28;20082;-69
2022/07/16 00:16:55;;;;;;;1.35;0.77;;;17.00;99.90;;;;;;5073581;28;20067;-69
2022/07/16 00:19:23;;;;;;;1.67;1.05;;;16.90;99.90;;;;;;5069123;28;20036;-69
2022/07/16 00:21:52;;;;;;;2.83;1.00;;;16.90;99.90;;;;;;5066936;28;20120;-69
2022/07/16 00:24:19;;;;;;;1.67;1.35;;;16.80;99.90;;;;;;5066135;28;20043;-69
2022/07/16 00:26:45;;;;;;;2.15;0.95;;;16.80;99.90;;;;;;5067641;28;20033;-69
2022/07/16 00:29:11;;;;;;;2.90;1.00;;;16.70;99.90;;;;;;5064918;28;20480;-69
2022/07/16 00:31:36;;;;;;;1.25;0.90;;;16.70;99.90;;;;;;5063195;28;20071;-69
2022/07/16 00:34:07;;;;;;;1.30;1.05;;;16.60;99.90;;;;;;5067583;28;20067;-69
2022/07/16 00:36:37;;;;;;;1.08;0.80;;;16.60;99.90;;;;;;5067585;28;20035;-69
2022/07/16 00:39:04;;;;;;;2.65;0.80;;;16.60;99.90;;;;;;5060442;28;20525;-69
2022/07/16 00:41:30;;;;;;;1.23;0.80;;;16.60;99.90;;;;;;5066794;28;20028;-69
2022/07/16 00:44:08;;;;;;;3.47;0.70;;;16.50;99.90;;;;;;5068127;28;20679;-70
2022/07/16 00:46:35;;;;;;;1.33;0.80;;;16.50;99.90;;;;;;5068619;28;20113;-69
2022/07/16 00:49:01;;;;;;;2.65;1.10;;;16.50;99.90;;;;;;5074942;28;20039;-69
2022/07/16 00:51:28;;;;;;;1.05;0.95;;;16.50;99.90;;;;;;5067150;28;20036;-69
2022/07/16 00:53:55;;;;;;;0.80;0.70;;;16.50;99.90;;;;;;5065606;28;20055;-69
2022/07/16 00:56:21;;;;;;;3.20;0.90;;;16.50;99.90;;;;;;5071037;28;20115;-68
2022/07/16 00:58:47;;;;;;;1.52;1.10;;;16.50;99.90;;;;;;5073590;28;20162;-69
2022/07/16 01:01:14;;;;;;;4.25;0.85;;;16.50;99.90;;;;;;5069402;28;21021;-69
2022/07/16 01:03:41;;;;;;;0.88;0.80;;;16.40;99.90;;;;;;5066073;28;20738;-69
2022/07/16 01:06:08;;;;;;;0.93;0.90;;;;;;;;;;5076841;28;20123;-69
2022/07/16 01:08:38;;;;;;;0.88;0.75;;;;;;;;;;5070551;28;20042;-69
2022/07/16 01:11:05;;;;;;;1.30;0.88;;;;;;;;;;5075658;28;20051;-69
2022/07/16 01:13:32;;;;;;;0.95;0.80;;;;;;;;;;5073528;28;20117;-69
2022/07/16 01:15:59;;;;;;;1.10;0.88;;;;;;;;;;5071332;28;20036;-69
2022/07/16 01:18:25;;;;;;;4.30;0.60;;;15.90;99.90;;;;;;5070482;28;20032;-69
2022/07/16 01:20:51;;;;;;;1.17;0.80;;;;;;;;;;5069408;28;20117;-69
2022/07/16 01:23:22;;;;;;;2.35;0.77;;;;;;;;;;5071007;28;20089;-69
2022/07/16 01:25:49;;;;;;;1.40;0.80;;;;;;;;;;5069836;28;20055;-69
2022/07/16 01:28:16;;;;;;;1.23;0.90;;;;;;;;;;5063731;28;20040;-69
2022/07/16 01:30:44;;;;;;;2.00;0.98;;;;;;;;;;5072669;28;20044;-69
2022/07/16 01:33:28;;;;;;;0.95;0.75;;;;;;;;;;5067463;28;20032;-69
2022/07/16 01:35:59;;;;;;;1.55;0.70;;;15.70;99.90;;;;;;5069687;28;20036;-69
2022/07/16 01:38:25;;;;;;;4.85;1.40;;;15.80;99.90;;;;;;5067517;28;20095;-69
2022/07/16 01:40:51;;;;;;;0.93;0.70;;;15.80;99.90;;;;;;5072396;28;20040;-69
2022/07/16 01:43:23;;;;;;;0.65;0.52;;;15.80;99.90;;;;;;5065826;28;20039;-69
2022/07/16 01:45:49;;;;;;;2.60;1.00;;;15.90;99.90;;;;;;5053123;28;20087;-69
2022/07/16 01:48:15;;;;;;;2.40;0.68;;;16.00;99.90;;;;;;5068834;28;20131;-69
2022/07/16 01:50:42;;;;;;;2.75;1.08;;;15.90;99.90;;;;;;5073771;28;20048;-67
2022/07/16 01:53:08;;;;;;;0.80;0.80;;;15.90;99.90;;;;;;5070173;28;20038;-68
2022/07/16 01:55:34;;;;;;;1.80;0.90;;;15.90;99.90;;;;;;5068968;28;20697;-68
2022/07/16 01:58:02;;;;;;;4.55;0.88;;;15.90;99.90;;;;;;5069845;28;20020;-68
2022/07/16 02:00:28;;;;;;;0.85;0.82;;;15.90;99.90;;;;;;5069453;28;20075;-68
2022/07/16 02:02:53;;;;;;;1.23;0.70;;;15.90;99.90;;;;;;5063585;28;20036;-67
2022/07/16 02:05:19;;;;;;;1.70;0.98;;;15.90;99.90;;;;;;5069585;28;20028;-68
2022/07/16 02:07:45;;;;;;;0.80;0.80;;;15.80;99.90;;;;;;5070059;28;20093;-69
2022/07/16 02:10:11;;;;;;;1.60;0.90;;;15.70;99.90;;;;;;5069389;28;20071;-68
2022/07/16 02:12:36;;;;;;;5.30;1.10;;;15.60;99.90;;;;;;5064392;28;20389;-68
2022/07/16 02:15:04;;;;;;;2.45;0.70;;;15.70;99.90;;;;;;5071893;28;20047;-67
2022/07/16 02:17:30;;;;;;;2.28;1.00;;;15.70;99.90;;;;;;5066137;28;20044;-68
2022/07/16 02:19:55;;;;;;;1.35;0.85;;;15.70;99.90;;;;;;5048864;28;20098;-67
2022/07/16 02:22:21;;;;;;;1.35;0.80;;;15.70;99.90;;;;;;5067404;28;20042;-68
2022/07/16 02:24:47;;;;;;;5.50;0.88;;;15.80;99.90;;;;;;5071947;28;20111;-68
2022/07/16 02:27:12;;;;;;;2.05;0.90;;;15.70;99.90;;;;;;5075809;28;20044;-69
2022/07/16 02:29:38;;;;;;;5.80;1.08;;;15.70;99.90;;;;;;5079085;28;20032;-67
2022/07/16 02:32:04;;;;;;;3.67;0.90;;;15.70;99.90;;;;;;5073681;28;20124;-68
2022/07/16 02:34:29;;;;;;;3.80;1.10;;;15.70;99.90;;;;;;5074613;28;20040;-67
2022/07/16 02:36:55;;;;;;;3.33;0.95;;;15.70;99.90;;;;;;5072512;28;20044;-68
2022/07/16 02:39:21;;;;;;;1.55;0.93;;;15.70;99.90;;;;;;5071070;28;20048;-68
2022/07/16 02:41:47;;;;;;;2.60;0.90;;;15.70;99.90;;;;;;5072066;28;20065;-68
2022/07/16 02:44:13;;;;;;;11.57;1.20;;;15.80;99.90;;;;;;5067135;28;20025;-68
2022/07/16 02:46:38;;;;;;;6.18;1.00;;;15.80;99.90;;;;;;5068253;28;20493;-68
2022/07/16 02:49:04;;;;;;;15.88;1.13;;;15.80;99.90;;;;;;5065321;28;20043;-69
2022/07/16 02:51:30;;;;;;;4.45;0.88;;;15.80;99.90;;;;;;5051039;28;20514;-67
2022/07/16 02:53:55;;;;;;;1.38;0.93;;;15.60;99.90;;;;;;5069464;28;20036;-69
2022/07/16 02:56:21;;;;;;;1.58;0.98;;;15.50;99.90;;;;;;5065056;28;21346;-68
2022/07/16 02:58:47;;;;;;;5.65;0.77;;;15.50;99.90;;;;;;5068551;28;20119;-69
2022/07/16 03:01:12;;;;;;;31.58;2.50;;;15.60;99.90;;;;;;5052312;28;20150;-68
2022/07/16 03:03:38;;;;;;;2.35;0.65;;;15.50;99.90;;;;;;5070741;28;20389;-68
2022/07/16 03:06:04;;;;;;;1.70;0.80;;;15.50;99.90;;;;;;5064098;28;20455;-69
2022/07/16 03:08:29;;;;;;;1.30;0.77;;;15.40;99.90;;;;;;5070378;28;20036;-68
2022/07/16 03:10:55;;;;;;;2.45;1.25;;;15.40;99.90;;;;;;5068582;28;20044;-68
2022/07/16 03:13:21;;;;;;;0.98;0.68;;;15.30;99.90;;;;;;5071441;28;20056;-69
2022/07/16 03:15:46;;;;;;;1.45;1.10;;;15.30;99.90;;;;;;5070520;28;20114;-69
2022/07/16 03:18:12;;;;;;;1.40;0.93;;;15.30;99.90;;;;;;5071796;28;20027;-69
2022/07/16 03:20:38;;;;;;;0.82;0.65;;;15.30;99.90;;;;;;5068234;28;20473;-69
2022/07/16 03:23:03;;;;;;;0.80;0.70;;;15.30;99.90;;;;;;5055442;28;20564;-69
2022/07/16 03:25:29;;;;;;;1.48;0.70;;;15.30;99.90;;;;;;5075051;28;20048;-69
2022/07/16 03:27:55;;;;;;;2.35;0.77;;;15.30;99.90;;;;;;5072230;28;20040;-68
2022/07/16 03:30:21;;;;;;;1.42;0.80;;;15.30;99.90;;;;;;5070901;28;21026;-69
2022/07/16 03:32:46;;;;;;;1.63;0.90;;;15.30;99.90;;;;;;5068862;28;20116;-69
2022/07/16 03:35:13;;;;;;;1.45;0.68;;;15.30;99.90;;;;;;5074655;28;20181;-68
2022/07/16 03:40:25;;;;;;;1.05;0.70;;;15.40;99.90;;;;;;5069578;28;20093;-72
2022/07/16 03:42:52;;;;;;;1.08;0.90;;;15.50;99.90;;;;;;5079111;28;20078;-72
2022/07/16 03:45:18;;;;;;;2.60;1.20;;;15.50;99.90;;;;;;5068925;28;20102;-72
2022/07/16 03:47:43;;;;;;;5.55;1.00;;;15.60;99.90;;;;;;5068116;28;20055;-72
2022/07/16 03:50:09;;;;;;;1.17;0.80;;;15.70;99.90;;;;;;5074767;28;20094;-73
2022/07/16 03:52:35;;;;;;;2.20;0.80;;;15.70;99.90;;;;;;5079875;28;20033;-72
2022/07/16 03:55:00;;;;;;;1.77;0.90;;;15.70;99.90;;;;;;5071368;28;20136;-72
2022/07/16 03:57:26;;;;;;;1.60;0.73;;;15.80;99.90;;;;;;5075196;28;20385;-72
2022/07/16 03:59:52;;;;;;;2.00;0.88;;;15.90;99.90;;;;;;5066745;28;20516;-72
2022/07/16 04:02:17;;;;;;;1.10;0.63;;;15.90;99.90;;;;;;5052626;28;20066;-72
2022/07/16 04:04:43;;;;;;;1.92;0.98;;;16.00;99.90;;;;;;5070337;28;20046;-72
2022/07/16 04:07:09;;;;;;;1.90;0.82;;;16.10;99.90;;;;;;5072625;28;20761;-72
2022/07/16 04:09:34;;;;;;;1.10;0.85;;;16.10;99.90;;;;;;5067058;28;20036;-71
2022/07/16 04:12:00;;;;;;;1.85;0.90;;;16.20;99.90;;;;;;5073232;28;20048;-71
2022/07/16 04:14:25;;;;;;;2.90;1.00;;;16.20;99.90;;;;;;5072042;28;20519;-71
2022/07/16 04:16:51;;;;;;;0.77;0.73;;;16.20;99.90;;;;;;5058407;28;20136;-71
2022/07/16 04:19:17;;;;;;;1.98;0.98;;;16.30;99.90;;;;;;5073747;28;20041;-72
2022/07/16 04:21:43;;;;;;;3.55;0.98;;;16.40;99.90;;;;;;5070396;28;20047;-71
2022/07/16 04:24:08;;;;;;;2.00;1.08;;;16.50;99.90;;;;;;5073769;28;20408;-72
2022/07/16 04:26:34;;;;;;;5.07;1.33;;;16.60;99.90;;;;;;5059978;28;20459;-71
2022/07/16 04:29:00;;;;;;;2.38;1.30;;;16.70;99.90;;;;;;5064537;28;20837;-72
2022/07/16 04:31:25;;;;;;;1.83;1.02;;;16.80;99.90;;;;;;5056614;28;20048;-71
2022/07/16 04:33:51;;;;;;;3.15;1.13;;;16.70;99.90;;;;;;5071572;28;20117;-72
2022/07/16 04:36:17;;;;;;;1.45;0.90;;;16.70;99.90;;;;;;5068381;28;20071;-72
2022/07/16 04:38:42;;;;;;;1.70;1.00;;;16.80;99.90;;;;;;5071616;28;20112;-72
2022/07/16 04:41:08;;;;;;;1.10;0.75;;;16.80;99.90;;;;;;5056698;28;20490;-72
2022/07/16 04:43:34;;;;;;;1.83;1.25;;;16.80;99.90;;;;;;5074585;28;20470;-72
2022/07/16 04:45:59;;;;;;;5.95;1.25;;;16.90;99.90;;;;;;5070028;28;20048;-73
2022/07/16 04:48:25;;;;;;;1.05;0.90;;;17.00;99.90;;;;;;5048258;28;20048;-72
2022/07/16 04:50:51;;;;;;;1.13;1.00;;;17.10;99.90;;;;;;5049192;28;20046;-72
2022/07/16 04:53:16;;;;;;;3.67;1.10;;;17.20;99.90;;;;;;5068927;28;20501;-72
2022/07/16 04:55:42;;;;;;;3.95;1.25;;;17.40;99.90;;;;;;5072333;28;20119;-72
2022/07/16 04:58:08;;;;;;;5.38;1.20;;;17.40;99.90;;;;;;5067581;28;20115;-72
2022/07/16 05:00:34;;;;;;;5.50;1.20;;;17.50;99.90;;;;;;5069851;28;20429;-72
2022/07/16 05:03:02;;;;;;;3.13;1.00;;;;;;;;;;5075175;28;20531;-72
2022/07/16 05:05:30;;;;;;;10.20;1.38;;;;;;;;;;5070000;28;20043;-73
2022/07/16 05:07:56;;;;;;;1.10;1.00;;;;;;;;;;5073288;28;20037;-74
2022/07/16 05:10:22;;;;;;;0.80;0.80;;;;;;;;;;5054643;28;20071;-73
2022/07/16 05:12:49;;;;;;;3.45;0.98;;;;;;;;;;5047228;28;20072;-74
2022/07/16 05:15:15;;;;;;;4.00;1.10;;;;;;;;;;5055696;28;20040;-74
2022/07/16 05:17:41;;;;;;;1.05;0.80;;;;;;;;;;5054386;28;20088;-74
2022/07/16 05:20:07;;;;;;;1.23;1.00;;;;;;;;;;5047925;28;20095;-73
2022/07/16 05:22:33;;;;;;;1.88;0.80;;;;;;;;;;5053907;28;20049;-73
2022/07/16 05:24:59;;;;;;;3.05;1.20;;;;;;;;;;5051518;28;20029;-73
2022/07/16 05:27:25;;;;;;;4.05;0.90;;;18.70;86.80;;;;;;5049483;28;20123;-73
2022/07/16 05:29:51;;;;;;;5.00;0.98;;;18.80;87.80;;;;;;5054727;28;20119;-72
2022/07/16 05:32:16;;;;;;;2.53;0.95;;;18.90;88.30;;;;;;5056094;28;20021;-72
2022/07/16 05:34:42;;;;;;;2.97;0.98;;;19.00;86.30;;;;;;5050461;28;20025;-73
2022/07/16 05:37:08;;;;;;;1.75;0.90;;;19.10;85.60;;;;;;5051339;28;20502;-73
2022/07/16 05:39:33;;;;;;;1.65;0.70;;;19.30;84.00;;;;;;5055422;28;20050;-73
2022/07/16 05:41:59;;;;;;;1.48;0.70;;;19.30;84.10;;;;;;5045912;28;20052;-73
2022/07/16 05:44:24;;;;;;;2.58;1.15;;;19.50;83.50;;;;;;5047924;28;20622;-72
2022/07/16 05:46:50;;;;;;;4.10;0.90;;;19.60;82.70;;;;;;5052087;28;20134;-73
2022/07/16 05:49:16;;;;;;;1.98;0.63;;;19.70;82.20;;;;;;5048509;28;20393;-74
2022/07/16 05:51:41;;;;;;;3.75;0.88;;;19.80;81.80;;;;;;5050800;28;20054;-74
2022/07/16 05:54:07;;;;;;;3.67;1.10;;;20.00;80.20;;;;;;5059236;28;20036;-74
2022/07/16 05:56:32;;;;;;;2.50;1.00;;;20.10;79.40;;;;;;5054745;28;20048;-74
2022/07/16 05:59:02;;;;;;;2.15;1.00;;;20.20;79.50;;;;;;5047155;28;20047;-73
2022/07/16 06:01:29;;;;;;;2.45;0.90;;;20.30;78.40;;;;;;5047916;28;20067;-73
2022/07/16 06:03:54;;;;;;;1.80;1.10;;;20.40;79.30;;;;;;5048428;28;20029;-74
2022/07/16 06:06:20;;;;;;;6.63;1.00;;;20.50;78.00;;;;;;5047370;28;20040;-74
2022/07/16 06:08:46;;;;;;;6.82;1.15;;;20.60;78.30;;;;;;5052448;28;20098;-75
2022/07/16 06:11:11;;;;;;;6.70;0.95;;;20.70;77.40;;;;;;5054685;28;20053;-70
2022/07/16 06:13:37;;;;;;;4.88;1.60;;;20.90;77.50;;;;;;5048522;28;20167;-76
2022/07/16 06:16:03;;;;;;;50.35;4.43;;;21.10;77.10;;;;;;5045304;28;20140;-77
2022/07/16 06:18:28;;;;;;;1.42;0.88;;;21.20;76.40;;;;;;5047435;28;20033;-77
2022/07/16 06:20:54;;;;;;;1.90;1.02;;;21.30;75.50;;;;;;5046578;28;20041;-76
2022/07/16 06:23:20;;;;;;;1.80;0.90;;;21.30;74.70;;;;;;5047671;28;20515;-77
2022/07/16 06:25:46;;;;;;;1.75;0.82;;;21.30;75.40;;;;;;5051058;28;20143;-76
2022/07/16 06:28:11;;;;;;;5.57;0.93;;;21.30;73.30;;;;;;5046033;28;20032;-76
2022/07/16 06:30:37;;;;;;;5.30;0.95;;;21.20;73.90;;;;;;5049002;28;20119;-75
2022/07/16 06:33:03;;;;;;;2.92;0.93;;;21.20;73.80;;;;;;5047382;28;20370;-76
2022/07/16 06:35:29;;;;;;;1.98;1.08;;;21.30;73.70;;;;;;5053751;28;20039;-76
2022/07/16 06:37:55;;;;;;;0.90;0.70;;;21.40;73.90;;;;;;5052260;28;20040;-77
2022/07/16 06:40:20;;;;;;;3.70;1.20;;;21.60;70.20;;;;;;5051547;28;20271;-77
2022/07/16 06:42:46;;;;;;;3.28;0.70;;;21.60;68.40;;;;;;5050099;28;20036;-77
2022/07/16 06:45:12;;;;;;;2.05;0.75;;;21.70;67.90;;;;;;5046829;28;20554;-78
2022/07/16 06:47:38;;;;;;;2.63;1.10;;;21.80;66.20;;;;;;5042028;28;20051;-78
2022/07/16 06:50:04;;;;;;;1.77;0.70;;;21.90;62.80;;;;;;5049275;28;20519;-77
2022/07/16 06:52:30;;;;;;;1.35;0.70;;;21.90;60.70;;;;;;5052039;28;20041;-76
2022/07/16 06:54:55;;;;;;;2.28;0.80;;;22.00;62.10;;;;;;5049141;28;20040;-75
2022/07/16 06:57:22;;;;;;;2.25;0.68;;;22.10;61.80;;;;;;5047041;28;20022;-77
2022/07/16 06:59:47;;;;;;;3.55;0.80;;;22.20;60.00;;;;;;5053168;28;20119;-77
2022/07/16 07:02:16;;;;;;;4.78;0.80;;;22.30;59.50;;;;;;5051590;28;20174;-72
2022/07/16 07:04:42;;;;;;;0.80;0.80;;;22.40;58.30;;;;;;5047512;28;20033;-72
2022/07/16 07:07:08;;;;;;;0.82;0.50;;;22.50;60.50;;;;;;5040715;28;20493;-73
2022/07/16 07:09:33;;;;;;;1.83;0.60;;;22.60;58.70;;;;;;5056242;28;20497;-72
2022/07/16 07:11:59;;;;;;;1.35;0.50;;;22.70;59.00;;;;;;5065019;28;20071;-76
2022/07/16 07:14:25;;;;;;;2.42;0.90;;;22.80;58.10;;;;;;5049668;28;20028;-74
2022/07/16 07:16:51;;;;;;;1.75;0.90;;;22.90;57.10;;;;;;5066649;28;20067;-72
2022/07/16 07:19:16;;;;;;;10.80;1.10;;;22.90;56.80;;;;;;5064137;28;20033;-73
2022/07/16 07:21:42;;;;;;;0.77;0.77;;;22.90;56.70;;;;;;5064896;28;20037;-73
2022/07/16 07:24:08;;;;;;;2.75;1.00;;;22.90;56.00;;;;;;5060684;28;20124;-72
2022/07/16 07:26:33;;;;;;;3.15;0.70;;;23.00;54.60;;;;;;5065147;28;20044;-74
2022/07/16 07:28:59;;;;;;;3.65;0.95;;;23.00;53.30;;;;;;5072864;28;20051;-75
2022/07/16 07:31:24;;;;;;;3.22;0.98;;;23.00;54.40;;;;;;5069104;28;20531;-74
2022/07/16 07:33:50;;;;;;;2.92;1.52;;;23.10;55.40;;;;;;5069919;28;20036;-75
2022/07/16 07:36:16;;;;;;;1.38;0.90;;;23.20;53.60;;;;;;5067188;28;20044;-74
2022/07/16 07:38:41;;;;;;;0.85;0.70;;;23.30;53.90;;;;;;5052282;28;20068;-74
2022/07/16 07:41:07;;;;;;;2.25;0.90;;;23.30;52.30;;;;;;5065256;28;20381;-74
2022/07/16 07:43:33;;;;;;;4.03;1.10;;;23.30;52.90;;;;;;5065301;28;20442;-75
2022/07/16 07:45:58;;;;;;;1.08;0.60;;;23.40;53.30;;;;;;5066098;28;20051;-74
2022/07/16 07:48:24;;;;;;;5.10;1.05;;;23.50;51.80;;;;;;5072137;28;20166;-74
2022/07/16 07:50:49;;;;;;;2.28;0.77;;;23.50;52.10;;;;;;5067238;28;20042;-74
2022/07/16 07:53:15;;;;;;;1.63;0.65;;;23.50;50.20;;;;;;5073830;28;20733;-73
2022/07/16 07:55:41;;;;;;;1.83;0.80;;;23.50;50.50;;;;;;5070379;28;20061;-74
2022/07/16 07:58:07;;;;;;;2.88;0.90;;;23.50;50.80;;;;;;5068216;28;20036;-74
2022/07/16 08:00:33;;;;;;;2.58;0.70;;;23.50;51.40;;;;;;5061777;28;20040;-74
2022/07/16 08:02:59;;;;;;;1.83;0.90;;;23.60;50.40;;;;;;5074324;28;20040;-74
2022/07/16 08:05:25;;;;;;;2.05;0.80;;;23.60;50.30;;;;;;5070656;28;20103;-74
2022/07/16 08:07:51;;;;;;;5.78;1.10;;;23.70;51.30;;;;;;5072594;28;20101;-74
2022/07/16 08:10:17;;;;;;;1.25;0.90;;;23.70;51.00;;;;;;5074613;28;20443;-73
2022/07/16 08:12:43;;;;;;;1.48;0.90;;;23.90;50.40;;;;;;5062112;28;20045;-75
2022/07/16 08:15:09;;;;;;;3.30;0.70;;;23.90;50.00;;;;;;5068261;28;20484;-74
2022/07/16 08:17:35;;;;;;;2.90;1.05;;;23.90;50.60;;;;;;5070240;28;20028;-76
2022/07/16 08:20:02;;;;;;;0.82;0.73;;;24.00;50.20;;;;;;5069392;28;20048;-75
2022/07/16 08:22:28;;;;;;;2.47;0.77;;;24.10;50.10;;;;;;5069320;28;20093;-75
2022/07/16 08:27:38;;;;;;;1.00;0.70;;;24.20;49.60;;;;;;5070152;28;20055;-74
2022/07/16 08:30:04;;;;;;;2.13;0.80;;;24.10;50.60;;;;;;5075265;28;20033;-74
2022/07/16 08:32:30;;;;;;;1.50;0.88;;;24.20;51.20;;;;;;5040913;28;20419;-71
2022/07/16 08:34:55;;;;;;;2.05;0.80;;;24.30;51.10;;;;;;5041718;28;20551;-71
2022/07/16 08:37:36;;;;;;;1.75;0.73;;;24.40;50.30;;;;;;5062448;28;20109;-71
2022/07/16 08:40:04;;;;;;;0.65;0.63;;;24.40;49.60;;;;;;5058137;28;20519;-79
2022/07/16 08:42:32;;;;;;;1.60;0.98;;;24.40;49.70;;;;;;5050838;28;20040;-76
2022/07/16 08:44:58;;;;;;;1.02;0.77;;;24.50;51.00;;;;;;5066859;28;20037;-71
2022/07/16 08:47:25;;;;;;;2.58;0.70;;;24.60;48.60;;;;;;5069102;28;20052;-71
2022/07/16 08:49:52;;;;;;;1.38;0.60;;;24.50;50.00;;;;;;5066292;28;20025;-70
2022/07/16 08:52:20;;;;;;;1.27;0.65;;;24.50;50.50;;;;;;5066019;28;20131;-70
2022/07/16 08:54:48;;;;;;;1.65;0.90;;;24.50;49.30;;;;;;5055381;28;20041;-70
2022/07/16 08:57:15;;;;;;;1.45;0.70;;;24.50;50.20;;;;;;5068542;28;20586;-70
2022/07/16 08:59:41;;;;;;;1.63;0.70;;;24.70;51.20;;;;;;5061867;28;20048;-70
2022/07/16 09:02:07;;;;;;;1.23;0.80;;;24.80;49.30;;;;;;5044239;28;20039;-71
2022/07/16 09:04:32;;;;;;;1.83;0.68;;;24.80;51.80;;;;;;5056541;28;20037;-70
2022/07/16 09:06:58;;;;;;;1.00;0.73;;;24.90;50.50;;;;;;5046738;28;20075;-70
2022/07/16 09:09:24;;;;;;;1.58;1.13;;;24.90;51.20;;;;;;5059722;28;21577;-70
2022/07/16 09:11:49;;;;;;;1.33;0.90;;;25.00;49.60;;;;;;5067101;28;20051;-70
2022/07/16 09:14:16;;;;;;;1.08;0.73;;;24.90;49.60;;;;;;5055010;28;20040;-70
2022/07/16 09:16:51;;;;;;;2.05;0.95;;;24.90;50.50;;;;;;5047321;28;20051;-72
2022/07/16 09:19:21;;;;;;;0.95;0.75;;;25.10;48.80;;;;;;5040854;28;20043;-70
2022/07/16 09:22:06;;;;;;;1.17;0.70;;;25.00;50.60;;;;;;5063073;28;20472;-70
2022/07/16 09:24:40;;;;;;;1.33;1.00;;;25.10;49.80;;;;;;5061198;28;20400;-71
2022/07/16 09:27:20;;;;;;;1.00;0.88;;;25.10;48.70;;;;;;5055141;28;20515;-70
2022/07/16 09:30:03;;;;;;;1.52;0.90;;;25.00;49.70;;;;;;5059882;28;20048;-70
2022/07/16 09:32:36;;;;;;;0.70;0.70;;;25.00;50.80;;;;;;5063985;28;20047;-71
2022/07/16 09:35:03;;;;;;;1.65;0.70;;;25.20;49.90;;;;;;5064068;28;21072;-72
2022/07/16 09:37:51;;;;;;;6.13;0.90;;;25.20;50.50;;;;;;5057016;28;20477;-71
2022/07/16 09:40:32;;;;;;;6.05;1.00;;;25.30;50.00;;;;;;5057064;28;20055;-70
2022/07/16 09:42:59;;;;;;;2.20;0.80;;;25.30;48.90;;;;;;5054537;28;20404;-70
2022/07/16 09:45:25;;;;;;;9.48;1.00;;;25.30;49.30;;;;;;5058364;28;20131;-70
2022/07/16 09:47:51;;;;;;;1.45;1.00;;;25.40;49.70;;;;;;5055620;28;20051;-70
2022/07/16 09:50:17;;;;;;;1.20;0.75;;;25.40;49.40;;;;;;5056707;28;20041;-69
2022/07/16 09:52:42;;;;;;;1.58;1.08;;;25.50;49.90;;;;;;5046377;28;20073;-71
2022/07/16 09:55:08;;;;;;;1.33;0.80;;;25.50;48.70;;;;;;5063624;28;20028;-70
2022/07/16 09:57:34;;;;;;;2.38;1.20;;;25.50;49.00;;;;;;5067287;28;20142;-70
2022/07/16 10:00:00;;;;;;;1.70;0.93;;;25.40;47.30;;;;;;5053307;28;20132;-71
2022/07/16 10:02:28;;;;;;;2.85;1.00;;;25.20;49.90;;;;;;5064336;28;20028;-70
2022/07/16 10:04:54;;;;;;;2.92;1.02;;;25.20;49.10;;;;;;5069301;28;20051;-71
2022/07/16 10:07:20;;;;;;;2.10;0.80;;;25.30;51.50;;;;;;5059983;28;20082;-70
2022/07/16 10:09:46;;;;;;;1.98;1.10;;;25.40;48.70;;;;;;5045231;28;20064;-70
2022/07/16 10:12:18;;;;;;;1.33;0.98;;;25.40;48.00;;;;;;5063502;28;21095;-70
2022/07/16 10:14:54;;;;;;;4.30;0.98;;;25.50;49.20;;;;;;5063186;28;20044;-70
2022/07/16 10:17:23;;;;;;;5.75;1.02;;;25.60;48.60;;;;;;5066864;28;20111;-69
2022/07/16 10:20:00;;;;;;;1.20;1.00;;;25.60;50.40;;;;;;5061796;28;20028;-70
2022/07/16 10:22:30;;;;;;;1.83;1.15;;;25.80;49.80;;;;;;5065203;28;20084;-69
2022/07/16 10:24:57;;;;;;;3.10;1.40;;;25.90;48.10;;;;;;5060785;28;20056;-70
2022/07/16 10:27:30;;;;;;;2.53;0.93;;;25.90;47.50;;;;;;5063201;28;20482;-70
2022/07/16 10:30:29;;;;;;;1.60;0.85;;;25.80;47.60;;;;;;5068683;28;20054;-71
2022/07/16 10:33:09;;;;;;;1.25;0.60;;;25.70;49.00;;;;;;5072927;28;20528;-70
2022/07/16 10:35:37;;;;;;;3.83;1.00;;;25.90;48.00;;;;;;5062579;28;20473;-72
2022/07/16 10:38:18;;;;;;;1.88;1.00;;;25.80;47.10;;;;;;5070821;28;20497;-73
2022/07/16 10:40:45;;;;;;;2.25;1.00;;;25.80;48.30;;;;;;5049294;28;20488;-71
2022/07/16 10:43:18;;;;;;;8.55;1.20;;;25.90;47.60;;;;;;5060675;28;20028;-70
2022/07/16 10:45:57;;;;;;;1.27;1.15;;;25.80;49.00;;;;;;5058957;28;20113;-71
2022/07/16 10:48:24;;;;;;;3.85;1.10;;;25.80;47.80;;;;;;5066717;28;20032;-70
2022/07/16 10:51:12;;;;;;;2.15;1.17;;;25.60;47.40;;;;;;5073516;28;20036;-70
2022/07/16 10:53:57;;;;;;;2.10;1.10;;;25.50;48.20;;;;;;5066057;28;20056;-71
2022/07/16 10:56:44;;;;;;;2.75;0.98;;;25.50;48.60;;;;;;5045165;28;20040;-69
2022/07/16 10:59:11;;;;;;;2.80;1.00;;;25.60;49.00;;;;;;5064502;28;20044;-70
2022/07/16 11:01:39;;;;;;;2.33;1.20;;;25.60;48.70;;;;;;5034686;28;20072;-70
2022/07/16 11:04:06;;;;;;;2.08;1.00;;;25.70;48.90;;;;;;5060845;28;20136;-71
2022/07/16 11:06:32;;;;;;;5.03;1.30;;;25.80;48.40;;;;;;5062155;28;20055;-71
2022/07/16 11:09:03;;;;;;;3.42;1.20;;;25.70;49.20;;;;;;5063332;28;20029;-71
2022/07/16 11:11:32;;;;;;;1.10;0.80;;;25.60;48.40;;;;;;5059621;28;20040;-70
2022/07/16 11:13:59;;;;;;;3.78;1.10;;;25.50;48.00;;;;;;5065212;28;20117;-71
2022/07/16 11:16:25;;;;;;;6.50;1.52;;;25.60;50.40;;;;;;5061083;28;20097;-71
2022/07/16 11:18:51;;;;;;;1.35;0.85;;;25.80;49.70;;;;;;5059045;28;20137;-71
2022/07/16 11:21:17;;;;;;;0.80;0.80;;;25.80;49.20;;;;;;5065237;28;20451;-70
2022/07/16 11:23:54;;;;;;;3.05;0.98;;;25.90;49.00;;;;;;5062551;28;20048;-70
2022/07/16 11:26:21;;;;;;;1.48;0.88;;;26.00;49.30;;;;;;5057524;28;20033;-70
2022/07/16 11:28:58;;;;;;;2.45;1.20;;;26.30;48.40;;;;;;5062199;28;20047;-69
2022/07/16 11:31:29;;;;;;;2.50;1.02;;;26.30;47.60;;;;;;5060876;28;20044;-70
2022/07/16 11:34:01;;;;;;;4.83;0.90;;;26.30;49.00;;;;;;5064842;28;20024;-69
2022/07/16 11:36:40;;;;;;;2.40;1.08;;;26.30;48.00;;;;;;5044016;28;20088;-68
2022/07/16 11:39:12;;;;;;;2.75;1.10;;;26.10;48.80;;;;;;5067409;28;20020;-69
2022/07/16 11:41:44;;;;;;;1.60;0.93;;;26.10;50.20;;;;;;5070703;28;20043;-69
2022/07/16 11:44:14;;;;;;;;;;;26.30;49.00;;;;;;5064161;28;21292;-70
2022/07/16 11:46:54;;;;;;;1.90;1.10;;;26.50;51.00;;;;;;5053104;28;19955;-71
2022/07/16 11:49:25;;;;;;;8.02;1.05;;;26.70;47.60;;;;;;5050431;28;20135;-71
2022/07/16 11:51:51;;;;;;;5.32;1.30;;;26.50;48.10;;;;;;5067516;28;20136;-72
2022/07/16 11:54:17;;;;;;;1.48;1.05;;;26.10;48.60;;;;;;5063260;28;20185;-71
2022/07/16 11:56:43;;;;;;;2.47;1.15;;;26.00;50.00;;;;;;5067838;28;20074;-72
2022/07/16 11:59:30;;;;;;;1.25;1.10;;;26.10;51.10;;;;;;5071139;28;20039;-72
2022/07/16 12:02:08;;;;;;;2.05;1.75;;;26.30;49.40;;;;;;5069038;28;20048;-69
2022/07/16 12:04:39;;;;;;;5.68;1.52;;;26.40;50.30;;;;;;5065741;28;20045;-72
2022/07/16 12:07:08;;;;;;;4.22;1.60;;;26.70;48.90;;;;;;5056570;28;20669;-72
2022/07/16 12:09:46;;;;;;;4.75;1.50;;;26.60;47.20;;;;;;5062653;28;20072;-70
2022/07/16 12:12:15;;;;;;;3.33;1.00;;;26.40;47.10;;;;;;5063384;28;20040;-71
2022/07/16 12:14:45;;;;;;;4.32;1.27;;;26.40;49.20;;;;;;5066292;28;20040;-70
2022/07/16 12:17:31;;;;;;;3.15;1.20;;;26.50;47.30;;;;;;5056385;28;20038;-70
2022/07/16 12:20:16;;;;;;;1.08;0.98;;;26.60;47.60;;;;;;5067064;28;20039;-70
2022/07/16 12:22:48;;;;;;;2.10;1.13;;;26.50;48.60;;;;;;5060154;28;20040;-71
2022/07/16 12:25:30;;;;;;;1.58;1.02;;;26.50;49.40;;;;;;5062990;28;20371;-71
2022/07/16 12:28:22;;;;;;;3.45;1.20;;;26.60;48.90;;;;;;5052313;28;20036;-69
2022/07/16 12:31:08;;;;;;;1.80;1.00;;;26.80;48.60;;;;;;5062109;28;20798;-70
2022/07/16 12:33:35;;;;;;;3.45;1.02;;;26.90;46.60;;;;;;5053553;28;20032;-68
2022/07/16 12:36:02;;;;;;;1.15;1.02;;;27.00;49.10;;;;;;5063335;28;20036;-69
2022/07/16 12:38:52;;;;;;;1.92;1.10;;;27.10;48.40;;;;;;5062552;28;20043;-69
2022/07/16 12:41:23;;;;;;;1.20;0.90;;;27.10;47.50;;;;;;5056107;28;20062;-68
2022/07/16 12:43:54;;;;;;;1.10;1.00;;;27.10;47.00;;;;;;5067388;28;20039;-68
2022/07/16 12:46:31;;;;;;;2.63;1.07;;;27.10;46.40;;;;;;5057739;28;20123;-67
2022/07/16 12:49:01;;;;;;;1.00;0.90;;;26.90;46.50;;;;;;5060738;28;20032;-67
2022/07/16 12:51:39;;;;;;;1.25;1.00;;;26.80;45.30;;;;;;5051705;28;20036;-67
2022/07/16 12:54:07;;;;;;;1.88;0.88;;;26.70;46.70;;;;;;5057092;28;20039;-67
2022/07/16 12:59:19;;;;;;;5.82;1.42;;;26.70;46.60;;;;;;5056791;28;20325;-67
2022/07/16 13:01:45;;;;;;;1.85;1.10;;;26.60;45.00;;;;;;5060982;28;20039;-67
2022/07/16 13:04:11;;;;;;;1.50;1.30;;;26.50;45.70;;;;;;5051600;28;20401;-67
2022/07/16 13:06:37;;;;;;;2.35;1.13;;;26.40;46.50;;;;;;5058527;28;20039;-68